createdAt,value
2022-09-20T00:00:26.372Z,102362.13
2022-09-20T00:03:27.770Z,102360.38
2022-09-20T00:06:31.451Z,102360.38
2022-09-20T00:09:32.861Z,102362.13
2022-09-20T00:12:34.284Z,102355.13
2022-09-20T00:15:41.267Z,102353.38
2022-09-20T00:18:42.873Z,102354.25
2022-09-20T00:21:44.327Z,102362.16
2022-09-20T00:24:48.983Z,102353.38
2022-09-20T00:27:50.608Z,102349.84
2022-09-20T00:30:53.756Z,102344.59
2022-09-20T00:33:56.808Z,102349.84
2022-09-20T00:36:58.207Z,102349.84
2022-09-20T00:39:59.623Z,102355.13
2022-09-20T00:43:01.056Z,102363.91
2022-09-20T00:46:03.891Z,102360.41
2022-09-20T00:49:16.360Z,102363.03
2022-09-20T00:52:18.290Z,102370.94
2022-09-20T00:55:20.225Z,102374.47
2022-09-20T00:58:24.839Z,102377.06
2022-09-20T01:01:26.372Z,102370.94
2022-09-20T01:04:29.023Z,102377.97
2022-09-20T01:07:30.578Z,102373.56
2022-09-20T01:10:32.418Z,102377.97
2022-09-20T01:13:33.832Z,102367.41
2022-09-20T01:16:37.327Z,102369.16
2022-09-20T01:20:01.519Z,102359.47
2022-09-20T01:23:28.306Z,102351.59
2022-09-20T01:26:48.521Z,102350.69
2022-09-20T01:30:11.908Z,102353.31
2022-09-20T01:33:32.561Z,102355.06
2022-09-20T01:36:54.769Z,102359.47
2022-09-20T01:40:11.277Z,102364.72
2022-09-20T01:43:24.841Z,102355.06
2022-09-20T01:46:34.410Z,102355.06
2022-09-20T01:49:52.644Z,102359.47
2022-09-20T01:53:27.311Z,102348.03
2022-09-20T01:56:47.078Z,102345.41
2022-09-20T01:59:54.573Z,102344.53
2022-09-20T02:03:17.678Z,102335.75
2022-09-20T02:06:47.628Z,102341.94
2022-09-20T02:10:01.908Z,102336.63
2022-09-20T02:13:11.151Z,102343.66
2022-09-20T02:16:27.812Z,102350.69
2022-09-20T02:19:46.591Z,102355.94
2022-09-20T02:23:05.561Z,102355.06
2022-09-20T02:26:22.744Z,102355.06
2022-09-20T02:29:51.393Z,102351.56
2022-09-20T02:33:23.114Z,102349.78
2022-09-20T02:37:01.785Z,102344.53
2022-09-20T02:40:42.513Z,102330.47
2022-09-20T02:43:51.359Z,102331.34
2022-09-20T02:47:30.112Z,102331.38
2022-09-20T02:51:02.492Z,102338.41
2022-09-20T02:54:35.333Z,102331.38
2022-09-20T02:58:04.511Z,102331.41
2022-09-20T03:01:35.020Z,102329.63
2022-09-20T03:04:51.297Z,102334.94
2022-09-20T03:08:24.806Z,102333.16
2022-09-20T03:11:37.962Z,102334.03
2022-09-20T03:15:02.755Z,102337.53
2022-09-20T03:18:10.931Z,102337.50
2022-09-20T03:21:28.184Z,102347.19
2022-09-20T03:24:57.037Z,102346.31
2022-09-20T03:28:38.416Z,102343.69
2022-09-20T03:31:53.758Z,102348.09
2022-09-20T03:35:24.493Z,102349.88
2022-09-20T03:38:28.550Z,102346.34
2022-09-20T03:42:07.430Z,102346.34
2022-09-20T03:45:39.289Z,102334.91
2022-09-20T03:49:25.666Z,102341.94
2022-09-20T03:52:33.538Z,102347.22
2022-09-20T03:56:12.597Z,102350.72
2022-09-20T03:59:42.159Z,102356.00
2022-09-20T04:02:46.609Z,102353.38
2022-09-20T04:05:48.015Z,102354.25
2022-09-20T04:09:04.714Z,102351.59
2022-09-20T04:12:12.014Z,102356.00
2022-09-20T04:15:41.562Z,102356.00
2022-09-20T04:19:01.515Z,102354.25
2022-09-20T04:22:03.545Z,102360.41
2022-09-20T04:25:36.087Z,102356.88
2022-09-20T04:28:51.704Z,102351.63
2022-09-20T04:32:19.492Z,102354.25
2022-09-20T04:35:32.837Z,102355.13
2022-09-20T04:38:34.762Z,102354.25
2022-09-20T04:42:10.343Z,102356.91
2022-09-20T04:45:35.295Z,102366.56
2022-09-20T04:49:09.083Z,102366.53
2022-09-20T04:52:35.023Z,102372.69
2022-09-20T04:55:55.719Z,102376.22
2022-09-20T04:59:10.259Z,102374.44
2022-09-20T05:02:37.216Z,102364.78
2022-09-20T05:05:56.330Z,102366.53
2022-09-20T05:09:25.875Z,102372.69
2022-09-20T05:12:45.468Z,102371.81
2022-09-20T05:16:21.617Z,102362.13
2022-09-20T05:19:43.305Z,102374.44
2022-09-20T05:22:59.877Z,102375.31
2022-09-20T05:26:12.677Z,102376.22
2022-09-20T05:29:17.549Z,102378.84
2022-09-20T05:32:41.616Z,102377.97
2022-09-20T05:36:10.742Z,102378.88
2022-09-20T05:39:24.883Z,102381.47
2022-09-20T05:42:48.119Z,102384.13
2022-09-20T05:46:10.748Z,102382.38
2022-09-20T05:49:31.127Z,102390.28
2022-09-20T05:52:54.278Z,102385.00
2022-09-20T05:56:14.429Z,102389.38
2022-09-20T05:59:29.471Z,102391.16
2022-09-20T06:02:44.660Z,102396.44
2022-09-20T06:06:13.957Z,102404.34
2022-09-20T06:09:29.714Z,102392.91
2022-09-20T06:12:46.885Z,102400.81
2022-09-20T06:15:58.456Z,102407.81
2022-09-20T06:19:18.142Z,102406.09
2022-09-20T06:22:24.683Z,102408.72
2022-09-20T06:25:38.719Z,102412.28
2022-09-20T06:28:46.053Z,102406.09
2022-09-20T06:31:47.459Z,102406.09
2022-09-20T06:34:49.917Z,102402.56
2022-09-20T06:38:00.862Z,102405.22
2022-09-20T06:41:03.771Z,102403.44
2022-09-20T06:44:05.323Z,102396.22
2022-09-20T06:47:10.407Z,102404.44
2022-09-20T06:50:15.846Z,102396.25
2022-09-20T06:53:20.975Z,102406.28
2022-09-20T06:56:26.452Z,102411.22
2022-09-20T06:59:27.921Z,102408.38
2022-09-20T07:02:29.362Z,102405.50
2022-09-20T07:05:30.823Z,102413.84
2022-09-20T07:08:32.358Z,102412.16
2022-09-20T07:11:33.801Z,102411.06
2022-09-20T07:14:35.200Z,102414.34
2022-09-20T07:17:36.602Z,102412.44
2022-09-20T07:20:38.037Z,102416.00
2022-09-20T07:23:39.568Z,102420.63
2022-09-20T07:26:54.750Z,102419.47
2022-09-20T07:29:56.152Z,102425.41
2022-09-20T07:32:57.545Z,102423.94
2022-09-20T07:35:58.975Z,102424.81
2022-09-20T07:39:00.392Z,102435.31
2022-09-20T07:42:01.808Z,102437.69
2022-09-20T07:45:03.598Z,102432.19
2022-09-20T07:48:08.048Z,102441.53
2022-09-20T07:51:12.007Z,102446.16
2022-09-20T07:54:13.466Z,102463.81
2022-09-20T07:57:14.872Z,102466.25
2022-09-20T08:00:16.592Z,102470.16
2022-09-20T08:03:18.049Z,102464.13
2022-09-20T08:06:19.512Z,102466.06
2022-09-20T08:09:20.995Z,102476.78
2022-09-20T08:15:43.834Z,102482.03
2022-09-20T08:18:52.791Z,102473.00
2022-09-20T08:21:54.731Z,102486.72
2022-09-20T08:24:56.131Z,102483.41
2022-09-20T08:27:57.557Z,102490.25
2022-09-20T08:31:10.514Z,102488.16
2022-09-20T08:34:13.140Z,102495.09
2022-09-20T08:37:14.530Z,102495.44
2022-09-20T08:40:16.027Z,102494.06
2022-09-20T08:43:22.362Z,102488.91
2022-09-20T08:46:28.838Z,102498.97
2022-09-20T08:49:30.670Z,102490.44
2022-09-20T08:52:36.967Z,102496.53
2022-09-20T08:55:40.314Z,102494.84
2022-09-20T08:58:42.003Z,102497.28
2022-09-20T09:01:43.455Z,102491.44
2022-09-20T09:04:45.992Z,102501.13
2022-09-20T09:07:47.420Z,102502.22
2022-09-20T09:10:53.106Z,102500.84
2022-09-20T09:14:02.832Z,102502.34
2022-09-20T09:17:04.296Z,102500.06
2022-09-20T09:20:18.192Z,102502.38
2022-09-20T09:23:23.948Z,102511.38
2022-09-20T09:26:25.468Z,102512.03
2022-09-20T09:29:26.893Z,102511.28
2022-09-20T09:32:31.703Z,102516.19
2022-09-20T09:35:35.811Z,102519.75
2022-09-20T09:38:42.401Z,102530.72
2022-09-20T09:41:44.146Z,102529.50
2022-09-20T09:44:45.575Z,102517.91
2022-09-20T09:47:47.050Z,102532.88
2022-09-20T09:51:11.526Z,102534.69
2022-09-20T09:54:17.716Z,102537.09
2022-09-20T09:57:19.075Z,102540.50
2022-09-20T10:00:23.052Z,102538.28
2022-09-20T10:03:57.071Z,102549.91
2022-09-20T10:07:25.553Z,102538.09
2022-09-20T10:10:26.989Z,102527.72
2022-09-20T10:13:51.756Z,102536.06
2022-09-20T10:17:33.158Z,102533.78
2022-09-20T10:20:48.838Z,102535.16
2022-09-20T10:24:04.341Z,102526.22
2022-09-20T10:27:43.277Z,102520.16
2022-09-20T10:30:50.548Z,102523.84
2022-09-20T10:34:37.088Z,102522.69
2022-09-20T10:38:00.325Z,102518.50
2022-09-20T10:41:12.232Z,102523.13
2022-09-20T10:44:49.020Z,102521.06
2022-09-20T10:47:57.328Z,102516.75
2022-09-20T10:51:10.876Z,102525.38
2022-09-20T10:54:32.321Z,102524.56
2022-09-20T10:58:05.280Z,102511.44
2022-09-20T11:01:23.659Z,102515.50
2022-09-20T11:04:53.854Z,102525.38
2022-09-20T11:08:20.825Z,102526.94
2022-09-20T11:11:34.361Z,102529.44
2022-09-20T11:14:43.937Z,102531.97
2022-09-20T11:18:13.434Z,102531.09
2022-09-20T11:21:24.866Z,102523.19
2022-09-20T11:24:32.106Z,102522.78
2022-09-20T11:27:39.941Z,102519.25
2022-09-20T11:31:04.227Z,102528.44
2022-09-20T11:34:23.021Z,102531.47
2022-09-20T11:37:32.682Z,102529.38
2022-09-20T11:40:38.317Z,102522.44
2022-09-20T11:43:43.809Z,102517.63
2022-09-20T11:46:55.345Z,102520.56
2022-09-20T11:50:17.850Z,102519.22
2022-09-20T11:53:27.793Z,102525.34
2022-09-20T11:56:32.764Z,102517.50
2022-09-20T11:59:55.807Z,102521.78
2022-09-20T12:02:58.564Z,102527.00
2022-09-20T12:06:02.583Z,102535.63
2022-09-20T12:09:20.761Z,102525.47
2022-09-20T12:12:32.581Z,102539.63
2022-09-20T12:15:40.227Z,102533.50
2022-09-20T12:18:53.895Z,102537.03
2022-09-20T12:21:58.092Z,102540.06
2022-09-20T12:25:44.984Z,102540.63
2022-09-20T12:28:54.561Z,102537.19
2022-09-20T12:32:00.112Z,102541.72
2022-09-20T12:35:01.626Z,102538.75
2022-09-20T12:38:21.307Z,102530.94
2022-09-20T12:41:28.200Z,102533.25
2022-09-20T12:44:32.791Z,102523.44
2022-09-20T12:47:37.127Z,102523.63
2022-09-20T12:50:38.793Z,102530.31
2022-09-20T12:53:40.253Z,102514.25
2022-09-20T12:56:42.115Z,102522.06
2022-09-20T12:59:43.595Z,102524.38
2022-09-20T13:02:51.233Z,102518.63
2022-09-20T13:06:05.975Z,102519.97
2022-09-20T13:09:09.612Z,102521.69
2022-09-20T13:12:11.134Z,102520.56
2022-09-20T13:15:18.994Z,102511.97
2022-09-20T13:18:21.552Z,102517.34
2022-09-20T13:21:23.364Z,102509.25
2022-09-20T13:24:26.370Z,102515.81
2022-09-20T13:27:33.122Z,102515.16
2022-09-20T13:30:34.610Z,102515.16
2022-09-20T13:33:35.993Z,102514.94
2022-09-20T13:36:37.728Z,102517.75
2022-09-20T13:39:39.256Z,102523.84
2022-09-20T13:42:40.724Z,102519.00
2022-09-20T13:45:47.409Z,102518.38
2022-09-20T13:48:53.704Z,102511.59
2022-09-20T13:51:55.118Z,102511.53
2022-09-20T13:54:57.064Z,102519.84
2022-09-20T13:58:08.409Z,102517.13
2022-09-20T14:01:23.900Z,102508.09
2022-09-20T14:04:28.372Z,102512.41
2022-09-20T14:07:31.059Z,102510.59
2022-09-20T14:10:38.178Z,102509.81
2022-09-20T14:13:51.533Z,102502.06
2022-09-20T14:16:56.205Z,102509.25
2022-09-20T14:19:57.783Z,102504.19
2022-09-20T14:22:59.935Z,102495.13
2022-09-20T14:26:16.365Z,102498.69
2022-09-20T14:29:51.463Z,102496.66
2022-09-20T14:32:56.024Z,102493.06
2022-09-20T14:35:57.692Z,102497.53
2022-09-20T14:39:03.281Z,102501.28
2022-09-20T14:42:28.734Z,102493.75
2022-09-20T14:45:36.267Z,102501.28
2022-09-20T14:48:39.874Z,102495.59
2022-09-20T14:51:41.269Z,102504.41
2022-09-20T14:54:42.680Z,102496.41
2022-09-20T14:57:45.216Z,102484.97
2022-09-20T15:00:57.405Z,102501.16
2022-09-20T15:03:59.256Z,102488.97
2022-09-20T15:07:03.447Z,102489.13
2022-09-20T15:10:06.265Z,102490.34
2022-09-20T15:13:10.875Z,102500.88
2022-09-20T15:16:18.579Z,102493.25
2022-09-20T15:19:20.024Z,102501.34
2022-09-20T15:22:21.433Z,102496.47
2022-09-20T15:25:22.921Z,102496.34
2022-09-20T15:28:24.351Z,102493.69
2022-09-20T15:31:25.885Z,102496.28
2022-09-20T15:34:27.317Z,102497.44
2022-09-20T15:37:28.923Z,102493.69
2022-09-20T15:40:30.568Z,102486.28
2022-09-20T15:43:32.283Z,102495.59
2022-09-20T15:46:34.396Z,102483.53
2022-09-20T15:49:35.786Z,102493.75
2022-09-20T15:52:39.329Z,102494.78
2022-09-20T15:55:40.747Z,102489.03
2022-09-20T15:58:46.789Z,102491.13
2022-09-20T16:01:48.880Z,102489.88
2022-09-20T16:04:50.316Z,102491.84
2022-09-20T16:07:51.721Z,102493.44
2022-09-20T16:11:00.093Z,102492.31
2022-09-20T16:14:01.859Z,102492.13
2022-09-20T16:17:03.299Z,102494.91
2022-09-20T16:20:05.095Z,102494.78
2022-09-20T16:23:06.515Z,102501.25
2022-09-20T16:26:09.131Z,102507.44
2022-09-20T16:29:10.607Z,102502.13
2022-09-20T16:32:12.035Z,102508.47
2022-09-20T16:35:13.458Z,102510.41
2022-09-20T16:38:14.856Z,102511.47
2022-09-20T16:41:16.322Z,102519.59
2022-09-20T16:44:17.761Z,102522.53
2022-09-20T16:47:19.165Z,102519.41
2022-09-20T16:50:20.552Z,102521.41
2022-09-20T16:53:21.964Z,102528.78
2022-09-20T16:56:26.201Z,102527.25
2022-09-20T16:59:27.863Z,102535.44
2022-09-20T17:02:29.269Z,102534.75
2022-09-20T17:05:30.673Z,102542.00
2022-09-20T17:08:32.833Z,102543.03
2022-09-20T17:11:39.380Z,102545.91
2022-09-20T17:14:40.802Z,102543.47
2022-09-20T17:17:42.227Z,102536.56
2022-09-20T17:20:43.627Z,102547.31
2022-09-20T17:23:50.793Z,102553.66
2022-09-20T17:26:52.661Z,102551.09
2022-09-20T17:29:54.092Z,102554.81
2022-09-20T17:32:55.486Z,102546.06
2022-09-20T17:35:57.173Z,102557.66
2022-09-20T17:39:04.146Z,102558.66
2022-09-20T17:42:06.342Z,102564.00
2022-09-20T17:45:08.317Z,102563.94
2022-09-20T17:48:09.719Z,102563.94
2022-09-20T17:51:12.616Z,102564.00
2022-09-20T17:54:14.693Z,102564.00
2022-09-20T17:57:16.083Z,102569.38
2022-09-20T18:00:17.492Z,102573.78
2022-09-20T18:03:18.913Z,102577.34
2022-09-20T18:06:23.615Z,102581.81
2022-09-20T18:09:25.575Z,102582.72
2022-09-20T18:12:26.977Z,102584.50
2022-09-20T18:15:28.384Z,102587.16
2022-09-20T18:18:31.169Z,102586.31
2022-09-20T18:21:33.667Z,102593.38
2022-09-20T18:24:35.092Z,102590.78
2022-09-20T18:27:36.526Z,102595.19
2022-09-20T18:30:37.909Z,102593.47
2022-09-20T18:33:39.295Z,102597.00
2022-09-20T18:36:41.287Z,102602.28
2022-09-20T18:39:42.963Z,102606.69
2022-09-20T18:42:46.805Z,102611.97
2022-09-20T18:45:51.952Z,102611.97
2022-09-20T18:48:58.566Z,102613.72
2022-09-20T18:52:00.153Z,102610.22
2022-09-20T18:55:01.627Z,102614.59
2022-09-20T18:58:03.258Z,102622.47
2022-09-20T19:01:29.043Z,102622.44
2022-09-20T19:04:51.481Z,102627.66
2022-09-20T19:08:12.888Z,102624.97
2022-09-20T19:11:28.397Z,102624.03
2022-09-20T19:14:44.144Z,102632.78
2022-09-20T19:17:51.300Z,102639.78
2022-09-20T19:21:11.124Z,102637.09
2022-09-20T19:24:34.107Z,102634.38
2022-09-20T19:27:35.831Z,102641.38
2022-09-20T19:30:37.560Z,102643.06
2022-09-20T19:33:39.403Z,102652.72
2022-09-20T19:36:56.318Z,102645.72
2022-09-20T19:40:07.177Z,102656.25
2022-09-20T19:43:30.427Z,102658.06
2022-09-20T19:46:42.614Z,102660.72
2022-09-20T19:50:07.896Z,102673.91
2022-09-20T19:53:09.572Z,102671.31
2022-09-20T19:56:24.900Z,102673.16
2022-09-20T19:59:27.872Z,102675.84
2022-09-20T20:02:29.659Z,102675.06
2022-09-20T20:05:31.446Z,102683.91
2022-09-20T20:09:04.708Z,102676.94
2022-09-20T20:12:17.320Z,102681.41
2022-09-20T20:15:44.080Z,102688.50
2022-09-20T20:18:54.333Z,102690.31
2022-09-20T20:22:08.108Z,102685.94
2022-09-20T20:25:35.156Z,102687.69
2022-09-20T20:28:36.883Z,102686.81
2022-09-20T20:31:38.384Z,102695.63
2022-09-20T20:34:39.789Z,102687.69
2022-09-20T20:37:41.180Z,102680.63
2022-09-20T20:40:42.580Z,102692.94
2022-09-20T20:43:45.447Z,102691.19
2022-09-20T20:46:47.728Z,102691.22
2022-09-20T20:49:52.583Z,102705.28
2022-09-20T20:52:55.084Z,102704.41
2022-09-20T20:56:01.474Z,102701.75
2022-09-20T20:59:04.576Z,102709.69
2022-09-20T21:02:08.079Z,102707.06
2022-09-20T21:05:09.652Z,102710.56
2022-09-20T21:08:11.092Z,102708.84
2022-09-20T21:11:15.894Z,102707.94
2022-09-20T21:14:17.414Z,102708.81
2022-09-20T21:17:18.813Z,102712.34
2022-09-20T21:20:20.746Z,102708.81
2022-09-20T21:23:22.197Z,102712.34
2022-09-20T21:26:25.987Z,102714.97
2022-09-20T21:29:27.420Z,102717.59
2022-09-20T21:32:28.885Z,102716.72
2022-09-20T21:35:30.516Z,102715.84
2022-09-20T21:38:31.977Z,102724.63
2022-09-20T21:41:35.680Z,102719.34
2022-09-20T21:44:37.057Z,102726.34
2022-09-20T21:47:38.474Z,102726.28
2022-09-20T21:50:39.873Z,102718.34
2022-09-20T21:53:41.564Z,102722.72
2022-09-20T21:56:42.964Z,102719.19
2022-09-20T21:59:44.358Z,102723.53
2022-09-20T22:02:45.744Z,102717.34
2022-09-20T22:05:47.157Z,102716.44
2022-09-20T22:08:54.089Z,102710.28
2022-09-20T22:11:55.513Z,102710.28
2022-09-20T22:14:56.920Z,102708.50
2022-09-20T22:17:58.325Z,102713.81
2022-09-20T22:21:08.687Z,102720.88
2022-09-20T22:24:11.377Z,102720.03
2022-09-20T22:27:13.098Z,102726.22
2022-09-20T22:30:14.715Z,102720.97
2022-09-20T22:33:16.266Z,102727.16
2022-09-20T22:36:21.055Z,102728.97
2022-09-20T22:39:22.595Z,102728.13
2022-09-20T22:42:24.153Z,102726.38
2022-09-20T22:45:25.682Z,102731.66
2022-09-20T22:48:29.258Z,102724.59
2022-09-20T22:51:32.181Z,102729.88
2022-09-20T22:54:33.709Z,102725.47
2022-09-20T22:57:35.979Z,102727.22
2022-09-20T23:00:37.505Z,102727.22
2022-09-20T23:03:40.535Z,102737.78
2022-09-20T23:06:44.915Z,102736.91
2022-09-20T23:09:46.442Z,102730.72
2022-09-20T23:12:51.472Z,102739.44
2022-09-20T23:15:54.104Z,102733.25
2022-09-20T23:18:57.412Z,102735.84
2022-09-20T23:21:58.955Z,102733.16
2022-09-20T23:25:00.483Z,102740.16
2022-09-20T23:28:02.075Z,102748.06
2022-09-20T23:31:09.745Z,102748.94
2022-09-20T23:34:11.378Z,102745.44
2022-09-20T23:37:12.871Z,102739.25
2022-09-20T23:40:14.585Z,102743.66
2022-09-20T23:43:16.161Z,102747.16
2022-09-20T23:46:19.372Z,102748.06
2022-09-20T23:49:20.905Z,102747.19
2022-09-20T23:52:22.473Z,102748.97
2022-09-20T23:55:24.104Z,102752.53
2022-09-20T23:58:25.884Z,102750.78
